AirNav   Air Wisconsin Up To $57,000 Bonus
 
 1712 users online  

1CL2 Ancient Valley/Pontious Airport
Mojave, California, USA

GOING TO MOJAVE?


FAA INFORMATION EFFECTIVE 04 NOVEMBER 2021

Location

FAA Identifier: 1CL2
Lat/Long: 34-56-32.9080N 118-10-11.2700W
34-56.548467N 118-10.187833W
34.9424744,-118.1697972
(estimated)
Elevation: 2610 ft. / 796 m (estimated)
Variation: 14E (1985)
From city: 7 miles S of MOJAVE, CA
Time zone: UTC -7 (UTC -8 during Standard Time)
Zip code: 93501

Airport Operations

Airport use: Private use. Permission required prior to landing
Activation date: 04/1988
Control tower: no
ARTCC: LOS ANGELES CENTER
FSS: RIVERSIDE FLIGHT SERVICE STATION
Attendance: UNATNDD
Wind indicator: lighted
Segmented circle: yes

Airport Communications

WX AWOS-3 at MHV (7 nm N): 132.225 (661-824-5218)
WX ASOS at WJF (12 nm S): PHONE 661-949-2840
WX AWOS-1 at L71 (15 nm NE): 120.875 (760-373-7670)
WX AWOS-3P at TSP (18 nm NW): 120.025 (661-823-0473)
WX ASOS at PMD (19 nm S): PHONE 661-272-3798

Nearby radio navigation aids

VOR radial/distance  VOR name  Freq  Var
PMDr329/19.4PALMDALE VORTAC114.5015E
EDWr252/21.6EDWARDS VORTAC116.4012E
LHSr037/25.4LAKE HUGHES VORTAC114.3515E
GMNr060/35.0GORMAN VORTAC116.1016E

Airport Services

Runway Information

Runway 3/21

Dimensions: 1900 x 50 ft. / 579 x 15 m
Surface: dirt
RUNWAY 3  RUNWAY 21
Traffic pattern: leftleft

Runway 7/25

Dimensions: 1300 x 50 ft. / 396 x 15 m
Surface: dirt
RUNWAY 7  RUNWAY 25
Traffic pattern: leftleft

Airport Ownership and Management from official FAA records

Ownership: Privately-owned
Owner: ALFRED A. PONTIOUS AND OTHERS
8417 WEST 20TH STREET WEST
MOJAVE, CA 93501
Phone 661-824-5234
Manager: JERE R. CALEF
P.O. BOX 1146
MOJAVE, CA 93502
Phone 661-824-2839

Airport Operational Statistics

Aircraft based on the field: 11
Single engine airplanes: 11
    

Additional Remarks

OWNER DESIRES ARPT NOT BE CHARTED
FOR CD CTC JOSHUA APCH AT 661-277-3843.

Instrument Procedures

There are no published instrument procedures at 1CL2.

Some nearby airports with instrument procedures:

KMHV - Mojave Air and Space Port (7 nm N)
KWJF - General Wm J Fox Airfield (12 nm S)
KEDW - Edwards Air Force Base (14 nm E)
L71 - California City Municipal Airport (15 nm NE)
KPMD - Palmdale USAF Plant 42 Airport (19 nm S)
 
Loc | Ops | Rwys | IFR | FBO | Links
Com | Nav | Svcs | Stats | Notes
Area around 1CL2 (Ancient Valley/Pontious Airport)
 
Road maps at: MapQuest Bing Google
 
Aerial photo
WARNING: Photo may not be current or correct
Aerial photo of 1CL2 (Ancient Valley/Pontious Airport)
Taken in May 2008

Do you have a better or more recent aerial photo of Ancient Valley/Pontious Airport that you would like to share? If so, please send us your photo.

 
Sectional chart

 
Airport distance calculator
Flying to Ancient Valley/Pontious Airport? Find the distance to fly.

From to 1CL2

Sunrise and sunset
Times for 30-Nov-2021
 Local
(UTC-8)
 Zulu
(UTC)
Morning civil twilight06:1514:15
Sunrise06:4214:42
Sunset16:4000:40
Evening civil twilight17:0801:08

Current date and time
Zulu (UTC)  30-Nov-2021 20:05:31
Local (UTC-8)  30-Nov-2021 12:05:31
 
METAR
KMHV 
8nm N 
301940Z AUTO 06009KT 10SM CLR 22/M07 A3018 RMK A01
KWJF 
14nm S 
301956Z 08003KT 10SM CLR 20/M08 A3017 RMK AO2 SLP217 T02001083
KEDW 
15nm E 
301958Z 12003KT 80SM CLR 18/M08 A3015 RMK AO2A SLP206 T01791083
K9L2 
15nm E 
301958Z AUTO 00000KT 8SM CLR 18/M10 A3015 RMK AO2 SLP206 T01781101 $
KTSP 
18nm NW 
301955Z AUTO 14010G16KT 10SM CLR 23/M06 A3022 RMK AO2
KPMD 
19nm S 
301953Z 00000KT 10SM CLR 20/M08 A3018 RMK AO2 SLP210 T02001078 $
TAF
KWJF 
14nm S 
300546Z 3006/0106 VRB03KT P6SM SKC FM302000 09010KT P6SM SKC
KEDW 
15nm E 
301400Z 3014/0120 VRB06KT 9999 SKC QNH3013INS TX24/3022Z TN02/3014Z
KPMD 
19nm S 
301733Z 3018/0118 00000KT P6SM SKC FM302000 05008KT P6SM SKC FM010100 21007KT P6SM SKC FM010600 VRB03KT P6SM SKC
NOTAMs
Click for the latest NOTAMs
NOTAMs are issued by the DoD/FAA and will open in a separate window not controlled by AirNav.

 

 
 

Would you like to see your business listed on this page?

 If your business provides an interesting product or service to pilots, flight crews, aircraft, or users of the Ancient Valley/Pontious Airport, you should consider listing it here.  To start the listing process, click on the button below
 
Add a business
 

Other Pages about Ancient Valley/Pontious Airport

Update a link
 
Copyright © AirNav, LLC. All rights reserved. Privacy Policy  Contact